大分 の空港の天気 - METARとTAF

大分空港 ( RJFO / OIT ) - 大分県武蔵町
飛行場実況気象(Metar)
観測時間04/25 15:00 JST (04/25 06:00 UTC)
風向・風速北西 6m/s
視程10km以上
天気現象
少しの雲 雲底高度 460m
全天の8割程度の雲 雲底高度 910m
気温18℃
湿度68%
気圧1009hPa
METARRJFO 250600Z 32011KT 9999 FEW015 BKN030 BKN/// 18/12 Q1009
過去の天気等 Google飛行場航空写真 Wunderground天気予報

過去48時間のMETAR

飛行場予報(TAF)
発表時間: 4/25 14:09 JST (4/25 05:09 UTC)
予報対象時間: 25日15時 JST ~ 26日21時 JST
風向・風速北西 7m/s
視程10km以上
少しの雲 雲底高度 910m
25日15時 JST ~ 25日18時 JST に一時的に
風向・風速北西 8m/s 瞬間風速 13m/s
26日9時 JST ~ 26日12時 JST に徐々に
風向・風速北北東 4m/s
26日15時 JST ~ 26日18時 JST に徐々に
風向・風速南南東 2m/s
TAF RJFO 250509Z 2506/2612 32014KT 9999 FEW030
TEMPO 2506/2509 32015G25KT
BECMG 2600/2603 03008KT
BECMG 2606/2609 16004KT
日本の空港のMETAR・TAFへのリンク

RJTT 東京国際空港
RJAA 新東京国際空港
RJBB 関西国際空港
RJOO 大阪空港
RJGG 中部国際空港
RJCC 新千歳空港
RJFF 福岡空港
ROAH 那覇空港


RJEC 旭川空港
RJCH 函館空港
RJCK 釧路空港
RJCM 女満別空港
RJCB 帯広空港
RJSA 青森空港
RJSS 仙台空港
RJSK 秋田空港
RJSF 福島空港
RJAH 茨城空港
RJSN 新潟空港
RJNT 富山空港
RJNK 小松飛行場
RJNS 静岡空港
RJOH 美保飛行場
RJOC 出雲空港
RJOB 岡山空港
RJOA 広島空港
RJOI 岩国飛行場
RJOT 高松空港
RJOM 松山空港
RJOK 高知空港
RJFR 北九州空港
RJFT 熊本空港
RJFU 長崎空港
RJFS 佐賀空港
RJFO 大分空港
RJFM 宮崎空港
RJFK 鹿児島空港
ROIG 石垣島空港
RJTY 横田飛行場
ROTM 普天間飛行場
RODN 嘉手納飛行場